Saturday, December 16, 2017, 9:17 PM EST
Back to Local

KHYA, Hyannis Barnstable Boardmn

Location: West Yarmouth, MA, United States Lat: 41.667
Local Time: 9:17 PM EST ( 2:17 GMT) Lon: -70.267
Time Zone: US/Eastern Elev: 52 ft

Show me the last for .
Show Decoded

2017-12-16 19:56 METAR KHYA 170056Z 29007KT 10SM CLR M02/M08 A3006 RMK AO2 SLP180 T10171083 =
2017-12-16 18:56 METAR KHYA 162356Z 30007KT 10SM FEW085 M01/M08 A3003 RMK AO2 SLP172 T10111083
                 10011 21017 53034 =
2017-12-16 17:56 METAR KHYA 162256Z 27004KT 10SM CLR M01/M08 A3000 RMK AO2 SLP160 T10111083 =
2017-12-16 16:56 METAR KHYA 162156Z 30006KT 10SM OVC110 M01/M09 A2996 RMK AO2 SLP145 T10061089 =
2017-12-16 15:56 METAR KHYA 162056Z 27009KT 10SM CLR 00/M09 A2993 RMK AO2 SLP138 T00001089 53018
                 =
2017-12-16 14:56 METAR KHYA 161956Z 27011G17KT 10SM OVC100 01/M09 A2991 RMK AO2 SLP129 T00061089
                 =
2017-12-16 13:56 METAR KHYA 161856Z 27016G24KT 10SM OVC110 01/M09 A2988 RMK AO2 SLP121 T00061089
                 =
2017-12-16 12:56 METAR KHYA 161756Z 26018G25KT 10SM CLR 01/M08 A2988 RMK AO2 SLP120 T00061083
                 10006 21061 58020 =
2017-12-16 11:56 METAR KHYA 161656Z 27012G22KT 10SM CLR 00/M08 A2991 RMK AO2 SLP128 T00001078 =
2017-12-16 10:56 METAR KHYA 161556Z 28011G17KT 10SM CLR M01/M08 A2992 RMK AO2 SLP134 T10111083 =
2017-12-16 09:56 METAR KHYA 161456Z 28010G16KT 10SM CLR M02/M08 A2994 RMK AO2 SLP141 T10221078
                 53021 =
2017-12-16 08:56 METAR KHYA 161356Z 28008KT 10SM CLR M03/M08 A2991 RMK AO2 SLP131 T10281083 =
2017-12-16 07:56 METAR KHYA 161256Z 27010KT 10SM CLR M04/M08 A2989 RMK AO2 SLP122 T10441083 =
2017-12-16 06:56 METAR KHYA 161156Z 26006KT 10SM CLR M06/M09 A2988 RMK AO2 SLP120 60001 70011
                 T10561089 11033 21061 51025 =
2017-12-16 05:56 METAR KHYA 161056Z 29006KT 10SM CLR M06/M09 A2986 RMK AO2 SLP113 T10611089 =
2017-12-16 04:56 METAR KHYA 160956Z AUTO 28007KT 10SM BKN090 M06/M08 A2983 RMK AO2 SLP104
                 T10561078 =
2017-12-16 03:56 METAR KHYA 160856Z AUTO 28007KT 10SM OVC090 M05/M07 A2980 RMK AO2 SLP094 60001
                 T10501072 51014 =
2017-12-16 02:56 METAR KHYA 160756Z AUTO 28007KT 9SM OVC047 M04/M07 A2980 RMK AO2 SLP092
                 T10391067 =
2017-12-16 02:08 METAR KHYA 160708Z AUTO 28008KT 10SM SCT025 OVC040 M04/M06 A2979 RMK AO2
                 T10391056 =
2017-12-16 01:56 METAR KHYA 160656Z AUTO 28006KT 10SM BKN025 BKN030 OVC040 M04/M06 A2978 RMK AO2
                 SNE28 SLP087 P0001 T10391056 =
2017-12-16 01:17 METAR KHYA 160617Z AUTO 30008KT 4SM -SN BR BKN027 OVC034 M03/M05 A2977 RMK AO2
                 P0001 T10331050 =
2017-12-16 01:13 METAR KHYA 160613Z AUTO 30008KT 2 1/2SM -SN BR FEW019 OVC031 M03/M05 A2977 RMK
                 AO2 P0001 T10331050 =
2017-12-16 01:05 METAR KHYA 160605Z AUTO 30006KT 1 3/4SM -SN BR SCT017 OVC031 M03/M04 A2977 RMK
                 AO2 P0001 T10331044 =
2017-12-16 00:56 METAR KHYA 160556Z AUTO 30005KT 1 1/4SM -SN BR BKN015 OVC031 M03/M04 A2976 RMK
                 AO2 SLP081 P0001 60009 T10331044 11011 21033 58009 =
2017-12-16 00:48 METAR KHYA 160548Z AUTO 31006KT 1SM -SN BR VV015 M03/M04 A2976 RMK AO2 P0001
                 T10331044 =
2017-12-16 00:38 METAR KHYA 160538Z AUTO 30005KT 1SM -SN BR VV014 M03/M04 A2976 RMK AO2 P0001
                 T10281039 =
2017-12-16 00:29 METAR KHYA 160529Z AUTO 31006KT 3/4SM -SN BR VV016 M03/M04 A2976 RMK AO2 P0001
                 T10281039 =
2017-12-16 00:12 METAR KHYA 160512Z AUTO 31007KT 1 1/4SM -SN BR SCT007 OVC018 M03/M04 A2977 RMK
                 AO2 P0000 T10281039 =
2017-12-15 23:56 METAR KHYA 160456Z AUTO 30007KT 1SM -SN BR SCT005 BKN010 OVC016 M02/M03 A2977
                 RMK AO2 SLP084 P0002 T10221033 410111100 =
2017-12-15 23:22 METAR KHYA 160422Z AUTO 31005KT 1SM -SN BR FEW005 OVC012 M02/M03 A2978 RMK AO2
                 P0001 T10171028 =
2017-12-15 23:14 METAR KHYA 160414Z AUTO 34006KT 3/4SM -SN BR BKN009 OVC015 M02/M03 A2978 RMK AO2
                 P0001 T10171028 =
2017-12-15 23:03 METAR KHYA 160403Z AUTO 31004KT 3/4SM -SN BR FEW006 OVC014 M01/M03 A2979 RMK AO2
                 P0000 T10111028 =
2017-12-15 22:56 METAR KHYA 160356Z AUTO 32004KT 1SM -SN BR OVC014 M02/M03 A2979 RMK AO2 SLP090
                 P0001 T10171028 =
2017-12-15 22:39 METAR KHYA 160339Z AUTO 33004KT 1 1/4SM -SN BR OVC014 M02/M03 A2979 RMK AO2
                 P0000 T10171028 =
2017-12-15 22:29 METAR KHYA 160329Z AUTO 00000KT 1 1/2SM -SN BR BKN015 OVC020 M02/M03 A2979 RMK
                 AO2 P0000 T10171028 =
2017-12-15 22:22 METAR KHYA 160322Z AUTO 00000KT 2SM -SN BR SCT015 BKN020 OVC039 M02/M03 A2979
                 RMK AO2 P0000 T10221028 =
2017-12-15 22:15 METAR KHYA 160315Z AUTO 00000KT 3SM -SN BR SCT020 BKN025 OVC047 M02/M03 A2979
                 RMK AO2 P0000 T10221033 =
2017-12-15 21:56 METAR KHYA 160256Z AUTO 00000KT 3SM -SN BR FEW025 BKN032 OVC049 M02/M03 A2980
                 RMK AO2 SLP094 P0001 60005 T10221033 56025 =
2017-12-15 21:48 METAR KHYA 160248Z 04003KT 2 1/2SM -SN BR FEW025 OVC032 M02/M03 A2980 RMK AO2
                 P0001 T10221033 =
2017-12-15 21:40 METAR KHYA 160240Z 00000KT 1 3/4SM -SN BR FEW023 OVC030 M02/M03 A2981 RMK AO2
                 P0001 T10221033 =

Support USWX by starting your Amazon purchase here.